sensor_id;sensor_type;location;lat;lon;timestamp;temperature;humidity
22950;DHT22;11641;51.018;4.474;2023-04-24T00:00:55;10.60;99.90
22950;DHT22;11641;51.018;4.474;2023-04-24T00:03:26;10.80;99.90
22950;DHT22;11641;51.018;4.474;2023-04-24T00:05:56;10.90;99.90
22950;DHT22;11641;51.018;4.474;2023-04-24T00:08:21;10.90;99.90
22950;DHT22;11641;51.018;4.474;2023-04-24T00:10:49;10.80;99.90
22950;DHT22;11641;51.018;4.474;2023-04-24T00:13:14;10.80;99.90
22950;DHT22;11641;51.018;4.474;2023-04-24T00:15:42;10.90;99.90
22950;DHT22;11641;51.018;4.474;2023-04-24T00:18:08;10.70;99.90
22950;DHT22;11641;51.018;4.474;2023-04-24T00:20:36;10.70;99.90
22950;DHT22;11641;51.018;4.474;2023-04-24T00:23:02;10.70;99.90
22950;DHT22;11641;51.018;4.474;2023-04-24T00:25:28;10.70;99.90
22950;DHT22;11641;51.018;4.474;2023-04-24T00:27:56;10.70;99.90
22950;DHT22;11641;51.018;4.474;2023-04-24T00:30:24;10.70;99.90
22950;DHT22;11641;51.018;4.474;2023-04-24T00:32:50;10.70;99.90
22950;DHT22;11641;51.018;4.474;2023-04-24T00:35:15;10.70;99.90
22950;DHT22;11641;51.018;4.474;2023-04-24T00:37:41;10.70;99.90
22950;DHT22;11641;51.018;4.474;2023-04-24T00:40:07;10.80;99.90
22950;DHT22;11641;51.018;4.474;2023-04-24T00:42:33;10.70;99.90
22950;DHT22;11641;51.018;4.474;2023-04-24T00:45:00;10.70;99.90
22950;DHT22;11641;51.018;4.474;2023-04-24T00:47:26;10.60;99.90
22950;DHT22;11641;51.018;4.474;2023-04-24T00:49:56;10.60;99.90
22950;DHT22;11641;51.018;4.474;2023-04-24T00:52:21;10.50;99.90
22950;DHT22;11641;51.018;4.474;2023-04-24T00:54:49;10.40;99.90
22950;DHT22;11641;51.018;4.474;2023-04-24T00:57:16;10.40;99.90
22950;DHT22;11641;51.018;4.474;2023-04-24T00:59:43;10.40;99.90
22950;DHT22;11641;51.018;4.474;2023-04-24T01:02:10;10.50;99.90
22950;DHT22;11641;51.018;4.474;2023-04-24T01:04:36;10.50;99.90
22950;DHT22;11641;51.018;4.474;2023-04-24T01:07:02;10.60;99.90
22950;DHT22;11641;51.018;4.474;2023-04-24T01:09:29;10.60;99.90
22950;DHT22;11641;51.018;4.474;2023-04-24T01:11:55;10.60;99.90
22950;DHT22;11641;51.018;4.474;2023-04-24T01:14:22;10.50;99.90
22950;DHT22;11641;51.018;4.474;2023-04-24T01:16:48;10.50;99.90
22950;DHT22;11641;51.018;4.474;2023-04-24T01:19:15;10.50;99.90
22950;DHT22;11641;51.018;4.474;2023-04-24T01:21:43;10.50;99.90
22950;DHT22;11641;51.018;4.474;2023-04-24T01:24:09;10.40;99.90
22950;DHT22;11641;51.018;4.474;2023-04-24T01:26:37;10.30;99.90
22950;DHT22;11641;51.018;4.474;2023-04-24T01:29:03;10.20;99.90
22950;DHT22;11641;51.018;4.474;2023-04-24T01:31:28;10.30;99.90
22950;DHT22;11641;51.018;4.474;2023-04-24T01:33:56;10.40;99.90
22950;DHT22;11641;51.018;4.474;2023-04-24T01:36:25;10.40;99.90
22950;DHT22;11641;51.018;4.474;2023-04-24T01:38:55;10.40;99.90
22950;DHT22;11641;51.018;4.474;2023-04-24T01:41:21;10.30;99.90
22950;DHT22;11641;51.018;4.474;2023-04-24T01:43:48;10.40;99.90
22950;DHT22;11641;51.018;4.474;2023-04-24T01:46:16;10.40;99.90
22950;DHT22;11641;51.018;4.474;2023-04-24T01:48:42;10.40;99.90
22950;DHT22;11641;51.018;4.474;2023-04-24T01:51:08;10.40;99.90
22950;DHT22;11641;51.018;4.474;2023-04-24T01:53:33;10.20;99.90
22950;DHT22;11641;51.018;4.474;2023-04-24T01:56:01;10.10;99.90
22950;DHT22;11641;51.018;4.474;2023-04-24T01:58:28;10.00;99.90
22950;DHT22;11641;51.018;4.474;2023-04-24T02:00:56;9.90;99.90
22950;DHT22;11641;51.018;4.474;2023-04-24T02:03:22;10.00;99.90
22950;DHT22;11641;51.018;4.474;2023-04-24T02:05:50;10.10;99.90
22950;DHT22;11641;51.018;4.474;2023-04-24T02:08:16;10.10;99.90
22950;DHT22;11641;51.018;4.474;2023-04-24T02:10:44;10.20;99.90
22950;DHT22;11641;51.018;4.474;2023-04-24T02:13:11;10.20;99.90
22950;DHT22;11641;51.018;4.474;2023-04-24T02:15:36;10.20;99.90
22950;DHT22;11641;51.018;4.474;2023-04-24T02:18:05;10.10;99.90
22950;DHT22;11641;51.018;4.474;2023-04-24T02:20:32;10.00;99.90
22950;DHT22;11641;51.018;4.474;2023-04-24T02:23:01;10.00;99.90
22950;DHT22;11641;51.018;4.474;2023-04-24T02:25:26;10.00;99.90
22950;DHT22;11641;51.018;4.474;2023-04-24T02:27:53;10.00;99.90
22950;DHT22;11641;51.018;4.474;2023-04-24T02:30:18;9.80;99.90
22950;DHT22;11641;51.018;4.474;2023-04-24T02:32:47;9.70;99.90
22950;DHT22;11641;51.018;4.474;2023-04-24T02:35:17;9.70;99.90
22950;DHT22;11641;51.018;4.474;2023-04-24T02:37:43;9.70;99.90
22950;DHT22;11641;51.018;4.474;2023-04-24T02:40:09;9.70;99.90
22950;DHT22;11641;51.018;4.474;2023-04-24T02:42:35;9.70;99.90
22950;DHT22;11641;51.018;4.474;2023-04-24T02:45:00;9.70;99.90
22950;DHT22;11641;51.018;4.474;2023-04-24T02:47:26;9.80;99.90
22950;DHT22;11641;51.018;4.474;2023-04-24T02:49:54;9.70;99.90
22950;DHT22;11641;51.018;4.474;2023-04-24T02:52:21;9.70;99.90
22950;DHT22;11641;51.018;4.474;2023-04-24T02:54:46;9.70;99.90
22950;DHT22;11641;51.018;4.474;2023-04-24T02:57:12;9.70;99.90
22950;DHT22;11641;51.018;4.474;2023-04-24T02:59:41;9.70;99.90
22950;DHT22;11641;51.018;4.474;2023-04-24T03:02:12;9.70;99.90
22950;DHT22;11641;51.018;4.474;2023-04-24T03:04:37;9.70;99.90
22950;DHT22;11641;51.018;4.474;2023-04-24T03:07:03;9.70;99.90
22950;DHT22;11641;51.018;4.474;2023-04-24T03:09:31;9.60;99.90
22950;DHT22;11641;51.018;4.474;2023-04-24T03:11:56;9.60;99.90
22950;DHT22;11641;51.018;4.474;2023-04-24T03:14:22;9.60;99.90
22950;DHT22;11641;51.018;4.474;2023-04-24T03:16:48;9.70;99.90
22950;DHT22;11641;51.018;4.474;2023-04-24T03:19:14;9.60;99.90
22950;DHT22;11641;51.018;4.474;2023-04-24T03:21:41;9.70;99.90
22950;DHT22;11641;51.018;4.474;2023-04-24T03:24:10;9.60;99.90
22950;DHT22;11641;51.018;4.474;2023-04-24T03:26:41;9.60;99.90
22950;DHT22;11641;51.018;4.474;2023-04-24T03:29:08;9.60;99.90
22950;DHT22;11641;51.018;4.474;2023-04-24T03:31:34;9.60;99.90
22950;DHT22;11641;51.018;4.474;2023-04-24T03:34:02;9.50;99.90
22950;DHT22;11641;51.018;4.474;2023-04-24T03:36:27;9.50;99.90
22950;DHT22;11641;51.018;4.474;2023-04-24T03:38:53;9.30;99.90
22950;DHT22;11641;51.018;4.474;2023-04-24T03:41:19;9.30;99.90
22950;DHT22;11641;51.018;4.474;2023-04-24T03:43:47;9.40;99.90
22950;DHT22;11641;51.018;4.474;2023-04-24T03:46:15;9.50;99.90
22950;DHT22;11641;51.018;4.474;2023-04-24T03:48:41;9.70;99.90
22950;DHT22;11641;51.018;4.474;2023-04-24T03:51:07;9.60;99.90
22950;DHT22;11641;51.018;4.474;2023-04-24T03:53:35;9.60;99.90
22950;DHT22;11641;51.018;4.474;2023-04-24T03:56:00;9.60;99.90
22950;DHT22;11641;51.018;4.474;2023-04-24T03:58:29;9.60;99.90
22950;DHT22;11641;51.018;4.474;2023-04-24T04:00:56;9.50;99.90
22950;DHT22;11641;51.018;4.474;2023-04-24T04:03:23;9.40;99.90
22950;DHT22;11641;51.018;4.474;2023-04-24T04:05:54;9.40;99.90
22950;DHT22;11641;51.018;4.474;2023-04-24T04:08:22;9.40;99.90
22950;DHT22;11641;51.018;4.474;2023-04-24T04:10:48;9.40;99.90
22950;DHT22;11641;51.018;4.474;2023-04-24T04:13:13;9.50;99.90
22950;DHT22;11641;51.018;4.474;2023-04-24T04:15:39;9.50;99.90
22950;DHT22;11641;51.018;4.474;2023-04-24T04:18:05;9.60;99.90
22950;DHT22;11641;51.018;4.474;2023-04-24T04:20:31;9.60;99.90
22950;DHT22;11641;51.018;4.474;2023-04-24T04:22:59;9.50;99.90
22950;DHT22;11641;51.018;4.474;2023-04-24T04:25:27;9.40;99.90
22950;DHT22;11641;51.018;4.474;2023-04-24T04:27:52;9.50;99.90
22950;DHT22;11641;51.018;4.474;2023-04-24T04:30:19;9.50;99.90
22950;DHT22;11641;51.018;4.474;2023-04-24T04:32:46;9.50;99.90
22950;DHT22;11641;51.018;4.474;2023-04-24T04:35:14;9.50;99.90
22950;DHT22;11641;51.018;4.474;2023-04-24T04:37:40;9.50;99.90
22950;DHT22;11641;51.018;4.474;2023-04-24T04:40:09;9.40;99.90
22950;DHT22;11641;51.018;4.474;2023-04-24T04:42:38;9.40;99.90
22950;DHT22;11641;51.018;4.474;2023-04-24T04:45:08;9.30;99.90
22950;DHT22;11641;51.018;4.474;2023-04-24T04:47:38;9.20;99.90
22950;DHT22;11641;51.018;4.474;2023-04-24T04:50:05;9.10;99.90
22950;DHT22;11641;51.018;4.474;2023-04-24T04:52:31;9.10;99.90
22950;DHT22;11641;51.018;4.474;2023-04-24T04:54:56;9.00;99.90
22950;DHT22;11641;51.018;4.474;2023-04-24T04:57:24;9.00;99.90
22950;DHT22;11641;51.018;4.474;2023-04-24T04:59:50;9.00;99.90
22950;DHT22;11641;51.018;4.474;2023-04-24T05:02:16;9.00;99.90
22950;DHT22;11641;51.018;4.474;2023-04-24T05:04:44;9.00;99.90
22950;DHT22;11641;51.018;4.474;2023-04-24T05:07:14;9.10;99.90
22950;DHT22;11641;51.018;4.474;2023-04-24T05:09:40;9.20;99.90
22950;DHT22;11641;51.018;4.474;2023-04-24T05:12:09;9.10;99.90
22950;DHT22;11641;51.018;4.474;2023-04-24T05:14:36;9.10;99.90
22950;DHT22;11641;51.018;4.474;2023-04-24T05:17:04;9.10;99.90
22950;DHT22;11641;51.018;4.474;2023-04-24T05:19:32;9.10;99.90
22950;DHT22;11641;51.018;4.474;2023-04-24T05:22:05;9.10;99.90
22950;DHT22;11641;51.018;4.474;2023-04-24T05:24:35;9.00;99.90
22950;DHT22;11641;51.018;4.474;2023-04-24T05:27:02;9.00;99.90
22950;DHT22;11641;51.018;4.474;2023-04-24T05:29:28;9.00;99.90
22950;DHT22;11641;51.018;4.474;2023-04-24T05:31:56;8.90;99.90
22950;DHT22;11641;51.018;4.474;2023-04-24T05:34:24;8.80;99.90
22950;DHT22;11641;51.018;4.474;2023-04-24T05:36:52;8.90;99.90
22950;DHT22;11641;51.018;4.474;2023-04-24T05:39:18;8.90;99.90
22950;DHT22;11641;51.018;4.474;2023-04-24T05:41:47;8.90;99.90
22950;DHT22;11641;51.018;4.474;2023-04-24T05:44:13;8.90;99.90
22950;DHT22;11641;51.018;4.474;2023-04-24T05:46:41;8.90;99.90
22950;DHT22;11641;51.018;4.474;2023-04-24T05:49:08;8.90;99.90
22950;DHT22;11641;51.018;4.474;2023-04-24T05:51:34;8.90;99.90
22950;DHT22;11641;51.018;4.474;2023-04-24T05:54:00;9.00;99.90
22950;DHT22;11641;51.018;4.474;2023-04-24T05:56:27;9.00;99.90
22950;DHT22;11641;51.018;4.474;2023-04-24T05:58:55;9.20;99.90
22950;DHT22;11641;51.018;4.474;2023-04-24T06:01:22;9.10;99.90
22950;DHT22;11641;51.018;4.474;2023-04-24T06:03:50;9.10;99.90
22950;DHT22;11641;51.018;4.474;2023-04-24T06:06:16;9.00;99.90
22950;DHT22;11641;51.018;4.474;2023-04-24T06:08:44;8.90;99.90
22950;DHT22;11641;51.018;4.474;2023-04-24T06:11:10;9.20;99.90
22950;DHT22;11641;51.018;4.474;2023-04-24T06:13:36;9.10;99.90
22950;DHT22;11641;51.018;4.474;2023-04-24T06:16:02;9.00;99.90
22950;DHT22;11641;51.018;4.474;2023-04-24T06:18:28;9.00;99.90
22950;DHT22;11641;51.018;4.474;2023-04-24T06:20:54;9.00;99.90
22950;DHT22;11641;51.018;4.474;2023-04-24T06:23:20;9.10;99.90
22950;DHT22;11641;51.018;4.474;2023-04-24T06:25:46;9.10;99.90
22950;DHT22;11641;51.018;4.474;2023-04-24T06:28:12;9.00;99.90
22950;DHT22;11641;51.018;4.474;2023-04-24T06:30:40;9.10;99.90
22950;DHT22;11641;51.018;4.474;2023-04-24T06:33:06;9.10;99.90
22950;DHT22;11641;51.018;4.474;2023-04-24T06:35:34;9.10;99.90
22950;DHT22;11641;51.018;4.474;2023-04-24T06:38:04;9.10;99.90
22950;DHT22;11641;51.018;4.474;2023-04-24T06:40:32;9.00;99.90
22950;DHT22;11641;51.018;4.474;2023-04-24T06:42:58;9.10;99.90
22950;DHT22;11641;51.018;4.474;2023-04-24T06:45:25;9.10;99.90
22950;DHT22;11641;51.018;4.474;2023-04-24T06:47:51;9.10;99.90
22950;DHT22;11641;51.018;4.474;2023-04-24T06:50:17;9.20;99.90
22950;DHT22;11641;51.018;4.474;2023-04-24T06:52:43;9.20;99.90
22950;DHT22;11641;51.018;4.474;2023-04-24T06:55:09;9.20;99.90
22950;DHT22;11641;51.018;4.474;2023-04-24T06:57:39;9.10;99.90
22950;DHT22;11641;51.018;4.474;2023-04-24T07:00:05;9.10;99.90
22950;DHT22;11641;51.018;4.474;2023-04-24T07:02:32;9.10;99.90
22950;DHT22;11641;51.018;4.474;2023-04-24T07:04:58;9.40;99.90
22950;DHT22;11641;51.018;4.474;2023-04-24T07:07:23;9.40;99.90
22950;DHT22;11641;51.018;4.474;2023-04-24T07:09:51;9.30;99.90
22950;DHT22;11641;51.018;4.474;2023-04-24T07:12:17;9.40;99.90
22950;DHT22;11641;51.018;4.474;2023-04-24T07:14:45;9.40;99.90
22950;DHT22;11641;51.018;4.474;2023-04-24T07:17:13;9.50;99.90
22950;DHT22;11641;51.018;4.474;2023-04-24T07:19:40;9.50;99.90
22950;DHT22;11641;51.018;4.474;2023-04-24T07:22:05;9.60;99.90
22950;DHT22;11641;51.018;4.474;2023-04-24T07:24:32;9.70;99.90
22950;DHT22;11641;51.018;4.474;2023-04-24T07:26:58;9.70;99.90
22950;DHT22;11641;51.018;4.474;2023-04-24T07:29:24;9.70;99.90
22950;DHT22;11641;51.018;4.474;2023-04-24T07:31:50;9.60;99.90
22950;DHT22;11641;51.018;4.474;2023-04-24T07:34:18;9.50;99.90
22950;DHT22;11641;51.018;4.474;2023-04-24T07:36:44;9.50;99.90
22950;DHT22;11641;51.018;4.474;2023-04-24T07:39:10;9.70;99.90
22950;DHT22;11641;51.018;4.474;2023-04-24T07:41:37;9.70;99.90
22950;DHT22;11641;51.018;4.474;2023-04-24T07:44:05;9.80;99.90
22950;DHT22;11641;51.018;4.474;2023-04-24T07:46:31;9.80;99.90
22950;DHT22;11641;51.018;4.474;2023-04-24T07:48:57;9.80;99.90
22950;DHT22;11641;51.018;4.474;2023-04-24T07:51:24;9.60;99.90
22950;DHT22;11641;51.018;4.474;2023-04-24T07:53:53;9.30;99.90
22950;DHT22;11641;51.018;4.474;2023-04-24T07:56:20;9.30;99.90
22950;DHT22;11641;51.018;4.474;2023-04-24T07:58:48;9.20;99.90
22950;DHT22;11641;51.018;4.474;2023-04-24T08:01:14;9.10;99.90
22950;DHT22;11641;51.018;4.474;2023-04-24T08:03:39;9.00;99.90
22950;DHT22;11641;51.018;4.474;2023-04-24T08:06:05;9.00;99.90
22950;DHT22;11641;51.018;4.474;2023-04-24T08:08:33;9.10;99.90
22950;DHT22;11641;51.018;4.474;2023-04-24T08:10:59;9.10;99.90
22950;DHT22;11641;51.018;4.474;2023-04-24T08:13:25;9.30;99.90
22950;DHT22;11641;51.018;4.474;2023-04-24T08:15:53;9.50;99.90
22950;DHT22;11641;51.018;4.474;2023-04-24T08:18:19;9.60;99.90
22950;DHT22;11641;51.018;4.474;2023-04-24T08:20:47;9.80;99.90
22950;DHT22;11641;51.018;4.474;2023-04-24T08:23:13;10.10;99.90
22950;DHT22;11641;51.018;4.474;2023-04-24T08:25:39;10.60;99.90
22950;DHT22;11641;51.018;4.474;2023-04-24T08:28:06;10.90;99.90
22950;DHT22;11641;51.018;4.474;2023-04-24T08:30:32;10.70;99.90
22950;DHT22;11641;51.018;4.474;2023-04-24T08:33:00;10.70;99.90
22950;DHT22;11641;51.018;4.474;2023-04-24T08:35:25;10.80;99.90
22950;DHT22;11641;51.018;4.474;2023-04-24T08:37:53;11.00;99.90
22950;DHT22;11641;51.018;4.474;2023-04-24T08:40:26;11.50;99.90
22950;DHT22;11641;51.018;4.474;2023-04-24T08:42:55;11.70;99.90
22950;DHT22;11641;51.018;4.474;2023-04-24T08:45:23;11.80;99.90
22950;DHT22;11641;51.018;4.474;2023-04-24T08:47:49;11.80;99.90
22950;DHT22;11641;51.018;4.474;2023-04-24T08:50:17;11.60;99.90
22950;DHT22;11641;51.018;4.474;2023-04-24T08:52:43;11.00;99.90
22950;DHT22;11641;51.018;4.474;2023-04-24T08:55:11;10.80;99.90
22950;DHT22;11641;51.018;4.474;2023-04-24T08:57:37;10.70;99.90
22950;DHT22;11641;51.018;4.474;2023-04-24T09:00:08;10.80;99.90
22950;DHT22;11641;51.018;4.474;2023-04-24T09:02:34;10.90;99.90
22950;DHT22;11641;51.018;4.474;2023-04-24T09:05:00;10.90;99.90
22950;DHT22;11641;51.018;4.474;2023-04-24T09:07:27;11.20;99.90
22950;DHT22;11641;51.018;4.474;2023-04-24T09:09:57;11.50;99.90
22950;DHT22;11641;51.018;4.474;2023-04-24T09:12:25;12.00;99.90
22950;DHT22;11641;51.018;4.474;2023-04-24T09:14:51;12.50;99.90
22950;DHT22;11641;51.018;4.474;2023-04-24T09:17:20;12.80;99.90
22950;DHT22;11641;51.018;4.474;2023-04-24T09:19:48;13.10;99.90
22950;DHT22;11641;51.018;4.474;2023-04-24T09:22:14;13.10;99.90
22950;DHT22;11641;51.018;4.474;2023-04-24T09:24:40;13.40;99.90
22950;DHT22;11641;51.018;4.474;2023-04-24T09:27:07;13.50;99.90
22950;DHT22;11641;51.018;4.474;2023-04-24T09:29:33;13.30;99.90
22950;DHT22;11641;51.018;4.474;2023-04-24T09:31:59;12.70;99.90
22950;DHT22;11641;51.018;4.474;2023-04-24T09:34:27;12.30;99.90
22950;DHT22;11641;51.018;4.474;2023-04-24T09:36:55;12.20;99.90
22950;DHT22;11641;51.018;4.474;2023-04-24T09:39:23;12.10;99.90
22950;DHT22;11641;51.018;4.474;2023-04-24T09:41:52;12.10;99.90
22950;DHT22;11641;51.018;4.474;2023-04-24T09:44:22;11.90;99.90
22950;DHT22;11641;51.018;4.474;2023-04-24T09:46:55;12.00;99.90
22950;DHT22;11641;51.018;4.474;2023-04-24T09:49:31;12.30;99.90
22950;DHT22;11641;51.018;4.474;2023-04-24T09:52:05;14.00;99.90
22950;DHT22;11641;51.018;4.474;2023-04-24T09:54:31;14.80;99.90
22950;DHT22;11641;51.018;4.474;2023-04-24T09:56:57;14.40;99.90
22950;DHT22;11641;51.018;4.474;2023-04-24T09:59:23;13.30;99.90
22950;DHT22;11641;51.018;4.474;2023-04-24T10:01:48;13.10;99.90
22950;DHT22;11641;51.018;4.474;2023-04-24T10:04:26;12.90;99.90
22950;DHT22;11641;51.018;4.474;2023-04-24T10:06:53;12.70;99.90
22950;DHT22;11641;51.018;4.474;2023-04-24T10:09:21;13.00;99.90
22950;DHT22;11641;51.018;4.474;2023-04-24T10:11:51;13.40;99.90
22950;DHT22;11641;51.018;4.474;2023-04-24T10:14:20;13.50;99.90
22950;DHT22;11641;51.018;4.474;2023-04-24T10:16:48;13.90;99.90
22950;DHT22;11641;51.018;4.474;2023-04-24T10:19:19;13.80;99.90
22950;DHT22;11641;51.018;4.474;2023-04-24T10:21:45;13.90;99.90
22950;DHT22;11641;51.018;4.474;2023-04-24T10:24:14;13.20;99.90
22950;DHT22;11641;51.018;4.474;2023-04-24T10:26:45;12.80;99.90
22950;DHT22;11641;51.018;4.474;2023-04-24T10:29:16;13.00;99.90
22950;DHT22;11641;51.018;4.474;2023-04-24T10:31:45;13.20;99.90
22950;DHT22;11641;51.018;4.474;2023-04-24T10:34:12;13.80;99.90
22950;DHT22;11641;51.018;4.474;2023-04-24T10:36:42;13.90;99.90
22950;DHT22;11641;51.018;4.474;2023-04-24T10:39:11;14.50;99.90
22950;DHT22;11641;51.018;4.474;2023-04-24T10:41:40;14.30;99.90
22950;DHT22;11641;51.018;4.474;2023-04-24T10:44:07;14.40;99.90
22950;DHT22;11641;51.018;4.474;2023-04-24T10:46:33;14.20;99.90
22950;DHT22;11641;51.018;4.474;2023-04-24T10:48:59;14.40;99.90
22950;DHT22;11641;51.018;4.474;2023-04-24T10:51:53;14.70;99.90
22950;DHT22;11641;51.018;4.474;2023-04-24T10:54:33;15.50;99.90
22950;DHT22;11641;51.018;4.474;2023-04-24T10:59:44;14.80;99.90
22950;DHT22;11641;51.018;4.474;2023-04-24T11:02:10;14.90;99.90
22950;DHT22;11641;51.018;4.474;2023-04-24T11:04:36;15.50;99.90
22950;DHT22;11641;51.018;4.474;2023-04-24T11:07:03;16.70;99.90
22950;DHT22;11641;51.018;4.474;2023-04-24T11:09:32;17.60;99.90
22950;DHT22;11641;51.018;4.474;2023-04-24T11:12:11;18.80;99.90
22950;DHT22;11641;51.018;4.474;2023-04-24T11:17:32;21.90;96.90
22950;DHT22;11641;51.018;4.474;2023-04-24T11:20:03;21.60;94.40
22950;DHT22;11641;51.018;4.474;2023-04-24T11:22:33;21.10;93.50
22950;DHT22;11641;51.018;4.474;2023-04-24T11:25:01;18.90;98.60
22950;DHT22;11641;51.018;4.474;2023-04-24T11:27:32;17.70;99.90
22950;DHT22;11641;51.018;4.474;2023-04-24T11:29:59;18.40;99.90
22950;DHT22;11641;51.018;4.474;2023-04-24T11:32:33;19.20;99.90
22950;DHT22;11641;51.018;4.474;2023-04-24T11:37:28;18.00;99.90
22950;DHT22;11641;51.018;4.474;2023-04-24T11:39:57;18.40;98.90
22950;DHT22;11641;51.018;4.474;2023-04-24T11:42:24;16.80;99.90
22950;DHT22;11641;51.018;4.474;2023-04-24T11:44:53;16.40;99.90
22950;DHT22;11641;51.018;4.474;2023-04-24T11:47:30;15.60;99.90
22950;DHT22;11641;51.018;4.474;2023-04-24T11:49:56;17.50;99.90
22950;DHT22;11641;51.018;4.474;2023-04-24T11:52:22;18.10;99.90
22950;DHT22;11641;51.018;4.474;2023-04-24T11:54:51;17.50;99.90
22950;DHT22;11641;51.018;4.474;2023-04-24T11:57:25;16.10;99.90
22950;DHT22;11641;51.018;4.474;2023-04-24T11:59:54;15.90;99.90
22950;DHT22;11641;51.018;4.474;2023-04-24T12:02:24;15.80;99.90
22950;DHT22;11641;51.018;4.474;2023-04-24T12:04:51;16.40;99.90
22950;DHT22;11641;51.018;4.474;2023-04-24T12:07:17;16.80;99.90
22950;DHT22;11641;51.018;4.474;2023-04-24T12:10:07;17.00;99.90
22950;DHT22;11641;51.018;4.474;2023-04-24T12:12:33;17.40;99.90
22950;DHT22;11641;51.018;4.474;2023-04-24T12:14:58;17.10;99.90
22950;DHT22;11641;51.018;4.474;2023-04-24T12:17:29;17.30;99.90
22950;DHT22;11641;51.018;4.474;2023-04-24T12:20:03;17.20;99.90
22950;DHT22;11641;51.018;4.474;2023-04-24T12:22:50;18.00;99.90
22950;DHT22;11641;51.018;4.474;2023-04-24T12:25:17;17.30;99.90
22950;DHT22;11641;51.018;4.474;2023-04-24T12:27:44;16.80;99.90
22950;DHT22;11641;51.018;4.474;2023-04-24T12:30:14;16.50;99.90
22950;DHT22;11641;51.018;4.474;2023-04-24T12:32:42;17.40;99.90
22950;DHT22;11641;51.018;4.474;2023-04-24T12:35:13;18.20;99.90
22950;DHT22;11641;51.018;4.474;2023-04-24T12:37:42;17.90;99.90
22950;DHT22;11641;51.018;4.474;2023-04-24T12:40:11;17.40;99.90
22950;DHT22;11641;51.018;4.474;2023-04-24T12:42:45;16.70;99.90
22950;DHT22;11641;51.018;4.474;2023-04-24T12:45:13;16.50;99.90
22950;DHT22;11641;51.018;4.474;2023-04-24T12:47:43;17.00;99.90
22950;DHT22;11641;51.018;4.474;2023-04-24T12:50:11;16.80;99.90
22950;DHT22;11641;51.018;4.474;2023-04-24T12:52:40;19.20;99.90
22950;DHT22;11641;51.018;4.474;2023-04-24T12:55:08;19.20;99.90
22950;DHT22;11641;51.018;4.474;2023-04-24T12:57:35;20.70;98.00
22950;DHT22;11641;51.018;4.474;2023-04-24T13:00:04;19.10;99.20
22950;DHT22;11641;51.018;4.474;2023-04-24T13:02:33;19.80;97.50
22950;DHT22;11641;51.018;4.474;2023-04-24T13:05:00;20.10;96.30
22950;DHT22;11641;51.018;4.474;2023-04-24T13:07:29;19.10;98.20
22950;DHT22;11641;51.018;4.474;2023-04-24T13:09:56;19.20;97.70
22950;DHT22;11641;51.018;4.474;2023-04-24T13:12:22;20.10;96.00
22950;DHT22;11641;51.018;4.474;2023-04-24T13:14:49;21.90;93.30
22950;DHT22;11641;51.018;4.474;2023-04-24T13:17:18;22.30;89.20
22950;DHT22;11641;51.018;4.474;2023-04-24T13:19:44;23.70;87.10
22950;DHT22;11641;51.018;4.474;2023-04-24T13:22:12;25.10;75.80
22950;DHT22;11641;51.018;4.474;2023-04-24T13:24:38;24.00;75.40
22950;DHT22;11641;51.018;4.474;2023-04-24T13:27:06;23.30;74.00
22950;DHT22;11641;51.018;4.474;2023-04-24T13:29:32;21.70;78.70
22950;DHT22;11641;51.018;4.474;2023-04-24T13:31:57;22.10;80.90
22950;DHT22;11641;51.018;4.474;2023-04-24T13:34:24;23.90;76.10
22950;DHT22;11641;51.018;4.474;2023-04-24T13:36:52;23.80;74.80
22950;DHT22;11641;51.018;4.474;2023-04-24T13:39:18;24.10;74.00
22950;DHT22;11641;51.018;4.474;2023-04-24T13:41:44;25.60;69.30
22950;DHT22;11641;51.018;4.474;2023-04-24T13:44:10;25.50;65.40
22950;DHT22;11641;51.018;4.474;2023-04-24T13:46:36;23.60;66.90
22950;DHT22;11641;51.018;4.474;2023-04-24T13:49:04;25.00;66.90
22950;DHT22;11641;51.018;4.474;2023-04-24T13:51:30;24.90;66.50
22950;DHT22;11641;51.018;4.474;2023-04-24T13:53:56;25.30;65.70
22950;DHT22;11641;51.018;4.474;2023-04-24T13:56:22;26.20;66.00
22950;DHT22;11641;51.018;4.474;2023-04-24T13:58:48;24.50;66.60
22950;DHT22;11641;51.018;4.474;2023-04-24T14:01:16;22.50;71.60
22950;DHT22;11641;51.018;4.474;2023-04-24T14:03:42;21.80;73.30
22950;DHT22;11641;51.018;4.474;2023-04-24T14:06:12;20.70;77.30
22950;DHT22;11641;51.018;4.474;2023-04-24T14:08:40;19.70;81.70
22950;DHT22;11641;51.018;4.474;2023-04-24T14:11:06;22.80;76.00
22950;DHT22;11641;51.018;4.474;2023-04-24T14:13:31;22.70;70.50
22950;DHT22;11641;51.018;4.474;2023-04-24T14:16:00;22.20;71.90
22950;DHT22;11641;51.018;4.474;2023-04-24T14:18:27;22.30;70.90
